Georgian Bay: Past 24 Hour Conditions

 

South Georgian Bay - 45143

01:00 PM EDT 20 October 2017Buoy position: 44.95N 80.63W
Disclaimer

This table is a summary of hourly weather conditions for the past 24 hours.
Please note that these observations might not always be representative of weather conditions over their associated marine area.

Date / Time
(EDT)
Wind(knots) Wave height(m) Wave period(s) Pressure(kPa) Air tempC) Water tempC)
20 October 2017
13:00 SSW 10 gust 12 0.5 3.0 102.1 16 14
12:00 SSW 10 gust 12 0.5 3.0 102.2 15 14
11:00 SSW 12 gust 14 0.5 3.0 102.2 14 14
10:00 SSW 12 gust 14 0.6 3.0 102.3 13 14
9:00 SW 12 gust 14 0.5 3.0 102.3 13 14
8:00 SW 12 gust 12 0.6 3.0 102.3 13 14
7:00 SW 10 gust 12 0.6 5.0 102.2 13 14
6:00 WSW 8 gust 10 0.6 5.0 102.1 13 14
5:00 W 10 gust 12 0.7 5.0 102.1 14 14
4:00 W 10 gust 12 0.8 4.0 102.1 14 14
3:00 W 14 gust 16 1.0 5.0 102.0 14 14
2:00 W 12 gust 16 1.2 4.0 102.0 14 14
1:00 WNW 16 gust 19 1.1 5.0 101.9 15 14
0:00 W 19 gust 23 1.1 4.0 101.8 14 14
19 October 2017
23:00 W 18 gust 19 0.9 3.0 101.8 14 14
22:00 N/A N/A N/A N/A N/A N/A
21:00 W 16 gust 18 0.9 3.0 101.7 14 14
20:00 W 16 gust 18 1.0 3.0 101.7 14 14
19:00 WSW 16 gust 18 1.1 4.0 101.7 15 14
18:00 WSW 18 gust 21 1.2 5.0 101.6 15 14
17:00 W 19 gust 23 1.3 5.0 101.5 15 14
16:00 W 19 gust 23 1.4 5.0 101.5 15 14
15:00 W 21 gust 25 1.2 5.0 101.4 15 14
14:00 W 18 gust 21 1.0 4.0 101.4 15 14
13:00 N/A N/A N/A N/A N/A N/A

Zoom-in to make a selection

Map of Great Lakes - Lake Huron marine weather areas N Huron - 45003 W Erie - 45005 S Huron - 45008 Lake Ontario - 45012 Port Stanley - 45132 Prince Edward Point - 45135 Georgian Bay - 45137 Grimsby - 45139 Port Colborne - 45142 South Georgian Bay - 45143 Lake St Clair - 45147 South Lake Huron - 45149 Lake Simcoe - 45151 Lake Nipissing - 45152 North Channel - 45154 Ajax - 45159 Sault Ste. Marie Airport Greater Sudbury Airport North Bay Airport Gore Bay-Manitoulin Airport Great Duck Island Brockville Grenadier Island Kingston Airport Collingwood Lagoon City Muskoka Airport Parry Sound Harbour Lake Simcoe Regional Airport Wiarton Airport Goderich Sarnia Chris Hadfield Airport Tobermory Harrow AAFC Port Weller St. Catharines Airport Southeast Shoal Vineland Station Welland-Pelham Windsor Airport Burlington Lift Bridge Cobourg Hamilton Munro Int'l Airport Oshawa Executive Airport Point Petre Toronto City Centre Airport CFB Trenton Peterborough Municipal Airport Killarney Western Islands Cove Island Long Point Port Colborne Erieau Point Pelee
Legend:
buoy Buoy
land station Land Station

Great Lakes - Lake Huron Area

Another Region

What we are doing

Features

Summer 2017: Significant weather across Canada

By analyzing weather events, ECCC is collecting more information as to how our climate is changing.

Date modified: